Time;durP1;ratioP1;P1;durP2;ratioP2;P2;SDS_P1;SDS_P2;PMS_P1;PMS_P2;Temp;Humidity;BMP_temperature;BMP_pressure;BME280_temperature;BME280_humidity;BME280_pressure;Samples;Min_cycle;Max_cycle;Signal;HPM_P1;HPM_P2
2023/05/05 00:00:54;;;;;;;9.27;8.40;;;17.20;77.60;;;;;;6211996;23;19996;-73
2023/05/05 00:03:21;;;;;;;8.60;7.75;;;17.20;77.90;;;;;;6211042;23;20039;-73
2023/05/05 00:05:48;;;;;;;10.68;8.48;;;17.10;78.00;;;;;;6184856;23;20005;-73
2023/05/05 00:08:14;;;;;;;8.80;7.65;;;17.10;78.00;;;;;;6210707;23;20037;-73
2023/05/05 00:10:41;;;;;;;10.38;7.88;;;17.10;78.10;;;;;;6211480;23;20004;-73
2023/05/05 00:13:07;;;;;;;14.93;7.95;;;17.10;78.20;;;;;;6211577;23;20012;-73
2023/05/05 00:15:32;;;;;;;10.82;8.57;;;17.10;78.60;;;;;;6211539;23;20004;-73
2023/05/05 00:17:58;;;;;;;9.63;8.73;;;17.10;78.90;;;;;;6184767;23;20050;-73
2023/05/05 00:20:24;;;;;;;8.95;8.13;;;17.10;78.90;;;;;;6211183;23;20001;-73
2023/05/05 00:22:49;;;;;;;10.13;7.97;;;17.10;78.90;;;;;;6210971;23;20016;-73
2023/05/05 00:25:15;;;;;;;9.52;8.05;;;17.10;79.00;;;;;;6210892;23;20407;-73
2023/05/05 00:27:40;;;;;;;10.82;8.23;;;17.10;79.80;;;;;;6211611;23;20075;-73
2023/05/05 00:30:06;;;;;;;10.93;8.23;;;17.10;79.20;;;;;;6184980;23;20009;-73
2023/05/05 00:32:32;;;;;;;12.25;8.73;;;17.10;79.30;;;;;;6211415;23;20584;-73
2023/05/05 00:34:58;;;;;;;12.65;9.13;;;17.10;79.40;;;;;;6211651;23;20000;-74
2023/05/05 00:37:23;;;;;;;13.05;8.95;;;17.10;79.50;;;;;;6210126;23;20341;-73
2023/05/05 00:39:49;;;;;;;9.43;8.43;;;17.10;79.30;;;;;;6211731;23;20001;-73
2023/05/05 00:42:15;;;;;;;12.88;8.38;;;17.10;79.30;;;;;;6183881;23;20017;-73
2023/05/05 00:44:41;;;;;;;9.60;8.00;;;17.10;79.70;;;;;;6211452;23;20020;-73
2023/05/05 00:47:07;;;;;;;10.13;8.30;;;17.00;80.10;;;;;;6211477;23;20126;-73
2023/05/05 00:49:34;;;;;;;10.77;9.50;;;17.00;80.50;;;;;;6211054;23;20080;-73
2023/05/05 00:52:00;;;;;;;10.60;9.20;;;17.00;80.90;;;;;;6210859;23;20007;-73
2023/05/05 00:54:26;;;;;;;10.73;8.55;;;16.90;81.90;;;;;;6210760;23;20051;-73
2023/05/05 00:56:52;;;;;;;10.60;7.80;;;16.90;81.50;;;;;;6211076;23;20004;-73
2023/05/05 00:59:18;;;;;;;9.05;7.78;;;16.80;81.70;;;;;;6211209;23;20027;-73
2023/05/05 01:01:44;;;;;;;9.98;9.00;;;16.80;82.00;;;;;;6211400;23;20008;-73
2023/05/05 01:04:10;;;;;;;10.43;9.32;;;16.80;82.50;;;;;;6211161;23;20004;-73
2023/05/05 01:07:12;;;;;;;10.25;8.25;;;16.80;82.90;;;;;;6210725;23;20427;-73
2023/05/05 01:09:51;;;;;;;10.65;9.38;;;16.80;83.50;;;;;;6184342;23;20009;-73
2023/05/05 01:12:54;;;;;;;12.73;8.93;;;16.80;83.30;;;;;;6210828;23;20027;-73
2023/05/05 01:15:30;;;;;;;11.57;9.57;;;16.80;83.60;;;;;;6210365;23;20004;-73
2023/05/05 01:18:08;;;;;;;11.35;10.07;;;16.80;83.70;;;;;;6184476;23;20001;-73
2023/05/05 01:20:40;;;;;;;11.93;10.70;;;16.80;83.90;;;;;;6210496;23;20478;-73
2023/05/05 01:23:09;;;;;;;12.93;10.45;;;16.80;84.10;;;;;;6211098;23;20105;-73
2023/05/05 01:25:59;;;;;;;15.95;12.02;;;16.70;84.10;;;;;;6211159;23;20004;-73
2023/05/05 01:28:48;;;;;;;14.02;12.70;;;16.70;84.20;;;;;;6210496;23;20012;-73
2023/05/05 01:31:34;;;;;;;14.02;12.68;;;16.70;84.20;;;;;;6210620;23;20005;-73
2023/05/05 01:34:07;;;;;;;13.70;12.27;;;16.70;84.50;;;;;;6211017;23;20379;-73
2023/05/05 01:36:41;;;;;;;14.75;12.95;;;16.60;84.70;;;;;;6210668;23;20000;-73
2023/05/05 01:39:10;;;;;;;15.15;13.63;;;16.60;85.30;;;;;;6183805;23;20004;-73
2023/05/05 01:41:58;;;;;;;19.42;14.48;;;16.60;85.70;;;;;;6210402;23;20019;-73
2023/05/05 01:44:24;;;;;;;16.40;14.90;;;16.60;86.40;;;;;;6210418;23;20058;-73
2023/05/05 01:46:52;;;;;;;17.83;15.93;;;16.50;87.00;;;;;;6210969;23;20040;-73
2023/05/05 01:49:17;;;;;;;17.40;15.52;;;16.50;87.70;;;;;;6209598;23;20004;-73
2023/05/05 01:51:46;;;;;;;19.83;15.60;;;16.50;88.00;;;;;;6211106;23;20453;-73
2023/05/05 01:54:14;;;;;;;22.98;17.48;;;16.50;88.80;;;;;;6209949;23;20004;-73
2023/05/05 01:56:40;;;;;;;17.33;15.55;;;16.50;89.50;;;;;;6210958;23;20374;-73
2023/05/05 01:59:06;;;;;;;20.80;17.40;;;16.40;90.00;;;;;;6211024;23;20422;-73
2023/05/05 02:01:34;;;;;;;20.17;17.90;;;16.50;90.50;;;;;;6210222;23;20088;-73
2023/05/05 02:04:02;;;;;;;19.27;17.42;;;16.50;90.90;;;;;;6210714;23;20081;-74
2023/05/05 02:06:31;;;;;;;21.17;18.48;;;16.50;91.10;;;;;;6183335;23;20436;-73
2023/05/05 02:08:57;;;;;;;20.48;17.58;;;16.40;91.20;;;;;;6210918;23;20024;-73
2023/05/05 02:11:25;;;;;;;22.33;17.67;;;16.40;91.30;;;;;;6210247;23;20001;-73
2023/05/05 02:13:51;;;;;;;20.20;18.27;;;16.40;91.40;;;;;;6210651;23;20032;-73
2023/05/05 02:16:18;;;;;;;20.80;18.83;;;16.40;91.60;;;;;;6210344;23;20449;-73
2023/05/05 02:18:45;;;;;;;21.20;19.02;;;16.40;91.80;;;;;;6210211;23;20001;-73
2023/05/05 02:21:13;;;;;;;22.13;19.85;;;16.40;92.20;;;;;;6210054;23;20299;-73
2023/05/05 02:23:39;;;;;;;22.25;20.00;;;16.30;92.30;;;;;;6210869;23;20056;-74
2023/05/05 02:26:10;;;;;;;21.58;19.58;;;16.30;92.50;;;;;;6183744;23;20001;-74
2023/05/05 02:28:47;;;;;;;22.15;20.00;;;16.30;92.70;;;;;;6211033;23;20363;-74
2023/05/05 02:31:15;;;;;;;24.52;20.17;;;16.20;92.90;;;;;;6209978;23;20028;-74
2023/05/05 02:33:43;;;;;;;21.05;18.95;;;16.20;93.00;;;;;;6209918;23;20005;-73
2023/05/05 02:36:20;;;;;;;20.80;18.83;;;16.20;93.10;;;;;;6210212;23;20100;-73
2023/05/05 02:38:51;;;;;;;21.75;19.77;;;16.10;93.40;;;;;;6210663;23;20086;-73
2023/05/05 02:41:20;;;;;;;21.38;19.33;;;16.10;93.50;;;;;;6210081;23;20012;-73
2023/05/05 02:43:48;;;;;;;21.17;19.17;;;16.00;93.70;;;;;;6210773;23;20419;-73
2023/05/05 02:46:15;;;;;;;23.27;20.85;;;16.00;93.90;;;;;;6210142;23;20043;-73
2023/05/05 02:48:40;;;;;;;21.13;19.08;;;15.90;94.10;;;;;;6210391;23;20007;-73
2023/05/05 02:51:06;;;;;;;21.55;19.45;;;15.90;94.30;;;;;;6211749;23;20067;-74
2023/05/05 02:53:33;;;;;;;22.85;20.65;;;15.90;94.50;;;;;;6212080;23;20489;-73
2023/05/05 02:56:10;;;;;;;24.35;21.92;;;15.80;94.90;;;;;;6186063;23;20012;-73
2023/05/05 02:58:47;;;;;;;24.08;21.20;;;15.80;95.30;;;;;;6212433;23;20000;-73
2023/05/05 03:01:21;;;;;;;23.55;21.00;;;15.80;95.50;;;;;;6211010;23;20329;-73
2023/05/05 03:04:02;;;;;;;25.52;22.33;;;15.80;95.80;;;;;;6210856;23;20051;-73
2023/05/05 03:06:30;;;;;;;22.52;20.33;;;15.70;96.10;;;;;;6211266;23;20441;-73
2023/05/05 03:09:06;;;;;;;23.63;21.30;;;15.70;96.20;;;;;;6210531;23;20454;-73
2023/05/05 03:11:54;;;;;;;24.13;21.67;;;15.70;96.40;;;;;;6210713;23;20001;-73
2023/05/05 03:14:21;;;;;;;22.10;20.00;;;15.70;96.50;;;;;;6212208;23;20008;-73
2023/05/05 03:16:48;;;;;;;24.27;21.75;;;15.60;96.50;;;;;;6211736;23;20102;-73
2023/05/05 03:19:17;;;;;;;25.20;22.70;;;15.60;96.60;;;;;;6211884;23;20000;-73
2023/05/05 03:21:43;;;;;;;24.95;22.38;;;15.50;96.80;;;;;;6185620;23;20000;-73
2023/05/05 03:24:14;;;;;;;24.98;22.48;;;15.50;97.00;;;;;;6212063;23;20004;-73
2023/05/05 03:26:40;;;;;;;24.13;21.73;;;15.40;97.20;;;;;;6212276;23;20063;-73
2023/05/05 03:29:05;;;;;;;24.75;22.20;;;15.30;97.40;;;;;;6212428;23;20028;-73
2023/05/05 03:31:31;;;;;;;26.45;23.65;;;15.30;97.60;;;;;;6184539;23;20012;-73
2023/05/05 03:33:57;;;;;;;27.75;23.10;;;15.20;97.80;;;;;;6212441;23;20075;-73
2023/05/05 03:36:22;;;;;;;25.23;22.70;;;15.20;98.00;;;;;;6211796;23;20053;-73
2023/05/05 03:38:48;;;;;;;25.27;22.98;;;15.20;98.30;;;;;;6212247;23;20012;-73
2023/05/05 03:41:13;;;;;;;25.75;23.10;;;15.10;98.50;;;;;;6184769;23;20017;-74
2023/05/05 03:43:40;;;;;;;25.40;22.90;;;15.10;98.80;;;;;;6185880;23;20036;-73
2023/05/05 03:46:05;;;;;;;26.38;21.70;;;15.00;98.90;;;;;;6211618;23;20330;-73
2023/05/05 03:48:32;;;;;;;25.60;23.10;;;15.00;99.20;;;;;;6211667;23;19997;-73
2023/05/05 03:50:58;;;;;;;27.02;24.15;;;15.00;99.40;;;;;;6212355;23;20001;-73
2023/05/05 03:53:24;;;;;;;25.00;22.45;;;15.00;99.60;;;;;;6211568;23;19992;-73
2023/05/05 03:55:51;;;;;;;25.27;22.58;;;14.90;99.70;;;;;;6185464;23;20287;-74
2023/05/05 03:58:16;;;;;;;25.17;22.75;;;14.90;99.90;;;;;;6211323;23;20001;-73
2023/05/05 04:00:42;;;;;;;24.38;22.13;;;14.80;99.90;;;;;;6211587;23;20005;-73
2023/05/05 04:03:08;;;;;;;27.15;24.27;;;14.80;99.90;;;;;;6211780;23;20000;-73
2023/05/05 04:05:33;;;;;;;25.20;22.88;;;14.80;99.90;;;;;;6211774;23;20433;-73
2023/05/05 04:07:59;;;;;;;25.98;23.27;;;14.80;99.90;;;;;;6212246;23;20035;-73
2023/05/05 04:10:25;;;;;;;23.48;21.30;;;14.80;99.90;;;;;;6211448;23;20004;-73
2023/05/05 04:12:50;;;;;;;25.05;22.45;;;14.70;99.90;;;;;;6185311;23;20039;-73
2023/05/05 04:15:16;;;;;;;22.95;20.70;;;14.70;99.90;;;;;;6211199;23;20012;-73
2023/05/05 04:17:41;;;;;;;23.23;20.50;;;14.70;99.90;;;;;;6211993;23;20079;-73
2023/05/05 04:20:08;;;;;;;24.10;21.50;;;14.70;99.90;;;;;;6212252;23;20000;-73
2023/05/05 04:22:33;;;;;;;24.40;21.00;;;14.70;99.90;;;;;;6211804;23;20028;-73
2023/05/05 04:24:59;;;;;;;21.75;19.55;;;14.70;99.90;;;;;;6211934;23;20005;-73
2023/05/05 04:27:25;;;;;;;22.90;20.50;;;14.70;99.90;;;;;;6211252;23;20008;-73
2023/05/05 04:29:51;;;;;;;20.98;18.98;;;14.70;99.90;;;;;;6211278;23;20027;-73
2023/05/05 04:32:16;;;;;;;22.55;20.13;;;14.70;99.90;;;;;;6211153;23;20423;-73
2023/05/05 04:34:42;;;;;;;19.77;18.02;;;14.70;99.90;;;;;;6211720;23;20135;-73
2023/05/05 04:37:08;;;;;;;21.13;18.15;;;14.60;99.90;;;;;;6210950;23;20005;-73
2023/05/05 04:39:33;;;;;;;19.67;17.42;;;14.60;99.90;;;;;;6210711;23;20000;-73
2023/05/05 04:41:59;;;;;;;19.88;17.83;;;14.60;99.90;;;;;;6184654;23;20079;-73
2023/05/05 04:44:24;;;;;;;22.70;20.27;;;14.60;99.90;;;;;;6210501;23;20001;-73
2023/05/05 04:46:50;;;;;;;21.95;17.52;;;14.60;99.90;;;;;;6211653;23;20415;-73
2023/05/05 04:49:15;;;;;;;21.08;18.45;;;14.60;99.90;;;;;;6211012;23;20004;-73
2023/05/05 04:51:41;;;;;;;20.90;18.65;;;14.60;99.90;;;;;;6210824;23;20100;-73
2023/05/05 04:54:07;;;;;;;20.27;17.42;;;14.60;99.90;;;;;;6210569;23;20382;-73
2023/05/05 04:56:32;;;;;;;19.27;17.05;;;14.60;99.90;;;;;;6211456;23;20080;-73
2023/05/05 04:58:58;;;;;;;19.88;17.98;;;14.60;99.90;;;;;;6211018;23;20367;-73
2023/05/05 05:01:24;;;;;;;18.27;16.48;;;14.60;99.90;;;;;;6184837;23;20004;-73
2023/05/05 05:03:49;;;;;;;17.70;15.77;;;14.60;99.90;;;;;;6211759;23;20004;-73
2023/05/05 05:06:15;;;;;;;17.65;15.20;;;14.60;99.90;;;;;;6211067;23;20035;-73
2023/05/05 05:08:41;;;;;;;16.08;14.45;;;14.60;99.90;;;;;;6211352;23;20483;-73
2023/05/05 05:11:07;;;;;;;15.07;13.60;;;14.60;99.90;;;;;;6211461;23;20429;-74
2023/05/05 05:13:33;;;;;;;15.75;14.23;;;14.60;99.90;;;;;;6210461;23;19997;-73
2023/05/05 05:15:59;;;;;;;14.85;13.45;;;14.60;99.90;;;;;;6211593;23;20000;-73
2023/05/05 05:18:24;;;;;;;14.82;12.35;;;14.60;99.90;;;;;;6210677;23;20009;-73
2023/05/05 05:20:50;;;;;;;14.27;12.88;;;14.70;99.90;;;;;;6211537;23;20437;-73
2023/05/05 05:23:15;;;;;;;14.48;12.93;;;14.70;99.90;;;;;;6210878;23;20322;-73
2023/05/05 05:25:41;;;;;;;13.93;11.57;;;14.70;99.90;;;;;;6211486;23;20079;-73
2023/05/05 05:28:07;;;;;;;11.80;10.70;;;14.70;99.90;;;;;;6210780;23;20004;-73
2023/05/05 05:30:32;;;;;;;11.57;10.48;;;14.80;99.90;;;;;;6211442;23;20104;-73
2023/05/05 05:32:58;;;;;;;12.73;11.43;;;14.80;99.90;;;;;;6211364;23;20004;-73
2023/05/05 05:35:23;;;;;;;11.00;8.98;;;14.90;99.90;;;;;;6210722;23;20068;-73
2023/05/05 05:37:50;;;;;;;9.77;8.88;;;14.90;99.90;;;;;;6211028;23;20374;-73
2023/05/05 05:40:16;;;;;;;13.13;9.88;;;15.00;99.90;;;;;;6210680;23;20067;-73
2023/05/05 05:42:42;;;;;;;11.25;9.07;;;15.00;99.90;;;;;;6210491;23;20468;-73
2023/05/05 05:45:08;;;;;;;16.13;9.95;;;15.10;99.90;;;;;;6211195;23;20398;-73
2023/05/05 05:47:33;;;;;;;10.57;9.43;;;15.10;99.90;;;;;;6184120;23;20039;-73
2023/05/05 05:49:59;;;;;;;14.27;10.00;;;15.20;99.90;;;;;;6184567;23;20442;-73
2023/05/05 05:52:24;;;;;;;12.18;9.93;;;15.20;99.90;;;;;;6210268;23;20072;-73
2023/05/05 05:54:50;;;;;;;11.50;9.98;;;15.20;99.90;;;;;;6211199;23;20076;-73
2023/05/05 05:57:15;;;;;;;9.63;8.70;;;15.30;99.90;;;;;;6209872;23;20012;-73
2023/05/05 05:59:41;;;;;;;11.45;9.48;;;15.40;99.90;;;;;;6211157;23;20410;-73
2023/05/05 06:02:08;;;;;;;9.68;8.63;;;15.40;99.90;;;;;;6210861;23;20001;-73
2023/05/05 06:04:33;;;;;;;9.82;8.32;;;15.40;99.90;;;;;;6209595;23;20425;-73
2023/05/05 06:06:59;;;;;;;12.10;8.85;;;15.50;99.90;;;;;;6208977;23;20209;-73
2023/05/05 06:09:25;;;;;;;14.45;8.85;;;15.50;99.90;;;;;;6208816;23;20032;-73
2023/05/05 06:11:50;;;;;;;13.13;9.10;;;15.60;99.90;;;;;;6209873;23;20445;-73
2023/05/05 06:14:16;;;;;;;13.00;8.98;;;15.70;99.90;;;;;;6210428;23;20004;-73
2023/05/05 06:16:43;;;;;;;13.18;9.88;;;15.80;99.90;;;;;;6210895;23;20005;-73
2023/05/05 06:19:09;;;;;;;11.70;9.32;;;15.80;99.90;;;;;;6210634;23;20369;-73
2023/05/05 06:21:35;;;;;;;13.18;10.05;;;15.90;99.90;;;;;;6184034;23;20000;-73
2023/05/05 06:24:01;;;;;;;10.90;9.85;;;15.90;99.90;;;;;;6210957;23;20051;-72
2023/05/05 06:26:26;;;;;;;12.82;11.35;;;16.00;99.90;;;;;;6212523;23;20005;-73
2023/05/05 06:28:52;;;;;;;14.85;12.27;;;16.00;99.90;;;;;;6214380;23;20047;-73
2023/05/05 06:31:17;;;;;;;11.93;10.82;;;16.10;99.90;;;;;;6213611;23;20074;-72
2023/05/05 06:33:43;;;;;;;13.00;11.63;;;16.10;99.90;;;;;;6187597;23;20007;-73
2023/05/05 06:36:08;;;;;;;19.58;14.07;;;16.20;99.90;;;;;;6213757;23;20426;-73
2023/05/05 06:38:34;;;;;;;16.25;12.82;;;16.20;99.90;;;;;;6213898;23;20012;-73
2023/05/05 06:41:00;;;;;;;17.02;12.85;;;16.30;99.90;;;;;;6214192;23;20012;-73
2023/05/05 06:43:28;;;;;;;15.88;11.93;;;16.40;99.90;;;;;;6213611;23;20076;-73
2023/05/05 06:45:53;;;;;;;16.08;13.57;;;16.50;99.90;;;;;;6214365;23;20004;-73
2023/05/05 06:48:19;;;;;;;14.82;13.13;;;16.60;99.90;;;;;;6184954;23;20004;-73
2023/05/05 06:50:45;;;;;;;19.08;13.13;;;16.60;99.90;;;;;;6213850;23;20076;-73
2023/05/05 06:53:10;;;;;;;19.13;13.85;;;16.70;99.90;;;;;;6213075;23;20000;-73
2023/05/05 06:55:36;;;;;;;14.63;13.13;;;16.80;99.90;;;;;;6213907;23;20023;-73
2023/05/05 06:58:01;;;;;;;18.33;14.77;;;16.80;99.90;;;;;;6187152;23;20013;-78
2023/05/05 07:00:27;;;;;;;18.17;14.52;;;16.90;99.90;;;;;;6213343;23;20099;-78
2023/05/05 07:02:52;;;;;;;19.58;15.30;;;17.00;99.90;;;;;;6214036;23;20008;-78
2023/05/05 07:05:18;;;;;;;16.40;14.85;;;17.00;99.90;;;;;;6213345;23;20096;-79
2023/05/05 07:07:54;;;;;;;17.17;13.02;;;17.00;99.90;;;;;;6213612;23;20130;-78
2023/05/05 07:10:21;;;;;;;18.35;15.90;;;17.10;99.90;;;;;;6213346;23;20127;-77
2023/05/05 07:12:47;;;;;;;17.15;15.38;;;17.10;99.90;;;;;;6214059;23;20004;-77
2023/05/05 07:15:13;;;;;;;21.40;16.80;;;17.10;99.90;;;;;;6213408;23;20079;-78
2023/05/05 07:17:39;;;;;;;20.08;16.05;;;17.20;99.90;;;;;;6214286;23;20008;-77
2023/05/05 07:20:06;;;;;;;16.90;15.20;;;17.20;99.90;;;;;;6215710;23;20095;-77
2023/05/05 07:22:31;;;;;;;18.60;15.70;;;17.20;99.90;;;;;;6215462;23;20000;-77
2023/05/05 07:24:57;;;;;;;14.80;13.18;;;17.30;99.90;;;;;;6186407;23;20000;-78
2023/05/05 07:27:22;;;;;;;14.63;13.13;;;17.40;99.90;;;;;;6212723;23;20008;-78
2023/05/05 07:29:48;;;;;;;15.18;13.10;;;17.50;99.90;;;;;;6214324;23;20007;-77
2023/05/05 07:32:13;;;;;;;17.38;13.35;;;17.60;99.90;;;;;;6212610;23;20370;-77
2023/05/05 07:34:39;;;;;;;15.85;11.73;;;17.80;99.90;;;;;;6186583;23;20012;-77
2023/05/05 07:37:06;;;;;;;14.40;11.88;;;17.80;99.90;;;;;;6211477;23;20084;-78
2023/05/05 07:39:32;;;;;;;14.52;12.63;;;17.90;99.90;;;;;;6211176;23;20732;-77
2023/05/05 07:41:57;;;;;;;15.48;12.50;;;18.00;99.90;;;;;;6184668;23;20009;-77
2023/05/05 07:44:23;;;;;;;14.73;12.77;;;18.10;99.90;;;;;;6211198;23;20070;-77
2023/05/05 07:46:48;;;;;;;15.00;12.77;;;18.20;99.90;;;;;;6211676;23;20364;-78
2023/05/05 07:49:14;;;;;;;15.45;11.90;;;18.20;99.90;;;;;;6184378;23;20107;-78
2023/05/05 07:51:40;;;;;;;15.38;13.15;;;18.20;99.90;;;;;;6211124;23;20005;-77
2023/05/05 07:54:06;;;;;;;14.38;12.88;;;18.30;99.90;;;;;;6211067;23;19997;-78
2023/05/05 07:56:32;;;;;;;15.68;11.23;;;18.40;99.90;;;;;;6211217;23;20005;-79
2023/05/05 07:58:57;;;;;;;13.13;11.40;;;18.50;99.90;;;;;;6211095;23;20001;-78
2023/05/05 08:01:23;;;;;;;13.60;11.52;;;18.60;99.90;;;;;;6184094;23;20341;-77
2023/05/05 08:03:48;;;;;;;14.18;11.60;;;18.70;99.90;;;;;;6184805;23;19996;-77
2023/05/05 08:06:15;;;;;;;14.30;11.25;;;18.80;99.90;;;;;;6183598;23;20168;-78
2023/05/05 08:08:41;;;;;;;16.52;10.85;;;18.80;99.90;;;;;;6210900;23;20004;-78
2023/05/05 08:11:06;;;;;;;15.90;12.10;;;18.90;99.70;;;;;;6211356;23;20004;-78
2023/05/05 08:13:33;;;;;;;13.88;10.70;;;19.00;99.60;;;;;;6210630;23;20009;-77
2023/05/05 08:15:58;;;;;;;16.08;11.05;;;19.10;99.40;;;;;;6211771;23;20001;-77
2023/05/05 08:18:25;;;;;;;13.65;12.40;;;19.20;99.10;;;;;;6210868;23;20015;-77
2023/05/05 08:20:51;;;;;;;13.52;11.85;;;19.20;98.80;;;;;;6210896;23;20303;-77
2023/05/05 08:23:17;;;;;;;13.30;11.07;;;19.30;98.70;;;;;;6184262;23;20005;-77
2023/05/05 08:25:43;;;;;;;14.23;9.88;;;19.40;98.10;;;;;;6184930;23;20011;-77
2023/05/05 08:28:08;;;;;;;11.57;9.60;;;19.40;97.70;;;;;;6211453;23;20013;-77
2023/05/05 08:30:34;;;;;;;10.45;8.20;;;19.40;97.60;;;;;;6211374;23;20000;-77
2023/05/05 08:33:00;;;;;;;8.68;7.80;;;19.50;97.30;;;;;;6211717;23;20066;-78
2023/05/05 08:35:26;;;;;;;10.57;9.07;;;19.60;97.00;;;;;;6210659;23;20005;-78
2023/05/05 08:37:51;;;;;;;10.60;9.07;;;19.60;96.80;;;;;;6211492;23;20364;-77
2023/05/05 08:40:19;;;;;;;9.27;7.85;;;19.70;96.70;;;;;;6210758;23;20005;-77
2023/05/05 08:42:45;;;;;;;10.40;6.57;;;19.70;96.40;;;;;;6184507;23;20057;-77
2023/05/05 08:45:11;;;;;;;8.38;6.45;;;19.80;95.20;;;;;;6211417;23;20005;-77
2023/05/05 08:47:37;;;;;;;6.80;4.97;;;19.80;94.90;;;;;;6212122;23;20076;-77
2023/05/05 08:50:07;;;;;;;5.55;5.05;;;19.70;94.60;;;;;;6210809;23;20004;-77
2023/05/05 08:52:39;;;;;;;7.97;6.10;;;19.80;94.50;;;;;;6210830;23;20004;-77
2023/05/05 08:55:25;;;;;;;8.38;5.80;;;19.90;94.50;;;;;;6211387;23;20403;-77
2023/05/05 08:57:56;;;;;;;9.93;8.93;;;20.00;94.20;;;;;;6184643;23;20009;-77
2023/05/05 09:00:22;;;;;;;10.82;9.73;;;20.10;94.50;;;;;;6210854;23;20020;-77
2023/05/05 09:02:48;;;;;;;9.88;8.88;;;20.30;94.70;;;;;;6211544;23;19992;-77
2023/05/05 09:05:13;;;;;;;11.50;7.97;;;20.50;94.70;;;;;;6183591;23;20074;-77
2023/05/05 09:07:40;;;;;;;9.27;8.10;;;20.60;94.60;;;;;;6211594;23;20054;-77
2023/05/05 09:10:08;;;;;;;9.52;7.88;;;20.70;94.20;;;;;;6210932;23;20000;-77
2023/05/05 09:12:34;;;;;;;7.82;6.40;;;20.90;94.20;;;;;;6210876;23;20573;-77
2023/05/05 09:15:03;;;;;;;10.00;7.82;;;21.00;93.90;;;;;;6211320;23;20024;-77
2023/05/05 09:17:28;;;;;;;7.57;6.32;;;21.20;93.70;;;;;;6183970;23;20058;-78
2023/05/05 09:20:15;;;;;;;10.02;7.82;;;21.30;93.40;;;;;;6184076;23;20008;-77
2023/05/05 09:22:44;;;;;;;9.88;7.95;;;21.50;93.10;;;;;;6210249;23;20009;-77
2023/05/05 09:25:12;;;;;;;7.85;7.05;;;21.70;92.80;;;;;;6210977;23;20001;-77
2023/05/05 09:27:46;;;;;;;8.70;6.13;;;21.90;92.40;;;;;;6210442;23;20460;-78
2023/05/05 09:30:15;;;;;;;8.23;6.18;;;22.00;91.90;;;;;;6210891;23;20008;-78
2023/05/05 09:32:46;;;;;;;9.88;6.53;;;22.20;91.90;;;;;;6210646;23;20001;-77
2023/05/05 09:35:12;;;;;;;9.15;6.03;;;22.40;91.60;;;;;;6210371;23;20067;-78
2023/05/05 09:37:38;;;;;;;7.15;6.22;;;22.50;91.30;;;;;;6184110;23;20043;-77
2023/05/05 09:40:05;;;;;;;10.00;6.28;;;22.70;90.80;;;;;;6211120;23;20079;-77
2023/05/05 09:42:31;;;;;;;10.55;5.63;;;22.70;90.30;;;;;;6209385;23;20100;-77
2023/05/05 09:44:56;;;;;;;6.07;5.47;;;22.80;90.20;;;;;;6211129;23;20035;-77
2023/05/05 09:47:44;;;;;;;7.00;5.03;;;22.80;89.90;;;;;;6209597;23;20012;-77
2023/05/05 09:50:14;;;;;;;7.07;4.97;;;22.90;88.90;;;;;;6210801;23;20005;-77
2023/05/05 09:52:40;;;;;;;7.00;4.88;;;22.90;88.60;;;;;;6210578;23;20004;-77
2023/05/05 09:55:16;;;;;;;5.43;4.93;;;22.90;88.20;;;;;;6210581;23;20015;-77
2023/05/05 09:57:41;;;;;;;8.65;4.82;;;23.00;88.00;;;;;;6184069;23;20031;-77
2023/05/05 10:00:09;;;;;;;7.65;6.97;;;23.10;87.50;;;;;;6210117;23;20093;-77
2023/05/05 10:02:36;;;;;;;8.27;6.53;;;23.20;86.70;;;;;;6209106;23;20098;-77
2023/05/05 10:05:14;;;;;;;7.07;6.38;;;23.10;86.40;;;;;;6210183;23;20007;-77
2023/05/05 10:07:42;;;;;;;6.93;6.22;;;23.10;86.10;;;;;;6210773;23;20005;-77
2023/05/05 10:10:13;;;;;;;7.57;5.78;;;23.20;86.00;;;;;;6210786;23;20035;-78
2023/05/05 10:12:39;;;;;;;6.25;5.57;;;23.20;85.40;;;;;;6210605;23;20039;-77
2023/05/05 10:15:07;;;;;;;6.70;4.47;;;23.20;84.60;;;;;;6210905;23;20091;-77
2023/05/05 10:17:37;;;;;;;5.97;3.92;;;23.20;85.10;;;;;;6212099;23;20004;-77
2023/05/05 10:20:05;;;;;;;6.70;3.95;;;23.10;84.60;;;;;;6211253;23;20445;-77
2023/05/05 10:22:34;;;;;;;6.30;4.00;;;23.10;84.40;;;;;;6183222;23;20064;-77
2023/05/05 10:25:09;;;;;;;7.68;4.85;;;23.20;84.00;;;;;;6210787;23;20373;-75
2023/05/05 10:27:49;;;;;;;8.90;4.20;;;23.20;83.10;;;;;;6210174;23;20004;-75
2023/05/05 10:30:31;;;;;;;4.57;3.67;;;23.10;82.60;;;;;;6183426;23;20001;-75
2023/05/05 10:33:08;;;;;;;6.22;4.13;;;23.00;83.20;;;;;;6209591;23;20039;-75
2023/05/05 10:35:37;;;;;;;5.78;3.42;;;23.00;83.40;;;;;;6210168;23;20473;-75
2023/05/05 10:38:07;;;;;;;6.07;4.45;;;22.90;83.20;;;;;;6211194;23;20062;-75
2023/05/05 10:40:33;;;;;;;7.15;5.18;;;23.00;83.00;;;;;;6211488;23;20057;-75
2023/05/05 10:42:59;;;;;;;8.40;5.28;;;23.00;83.30;;;;;;6212411;23;20005;-74
2023/05/05 10:45:24;;;;;;;7.15;5.70;;;23.00;83.90;;;;;;6209539;23;20110;-75
2023/05/05 10:47:51;;;;;;;7.03;6.05;;;23.10;83.90;;;;;;6210391;23;20080;-75
2023/05/05 10:50:28;;;;;;;8.65;6.60;;;23.20;83.80;;;;;;6209960;23;20430;-75
2023/05/05 10:53:10;;;;;;;5.88;4.80;;;23.30;83.70;;;;;;6210483;23;20417;-75
2023/05/05 10:56:15;;;;;;;6.28;3.38;;;23.30;82.70;;;;;;6184694;23;20012;-75
2023/05/05 10:58:41;;;;;;;3.38;1.50;;;23.40;82.90;;;;;;6212339;23;20001;-75
2023/05/05 11:01:08;;;;;;;4.03;0.82;;;23.40;81.50;;;;;;6210337;23;20012;-75
2023/05/05 11:03:34;;;;;;;2.72;0.93;;;23.30;79.70;;;;;;6183462;23;20422;-75
2023/05/05 11:06:08;;;;;;;1.38;0.50;;;23.10;80.00;;;;;;6210478;23;20005;-75
2023/05/05 11:08:35;;;;;;;1.83;0.60;;;23.10;80.00;;;;;;6210168;23;20005;-75
2023/05/05 11:11:01;;;;;;;1.83;1.33;;;23.00;80.20;;;;;;6210725;23;20015;-74
2023/05/05 11:13:27;;;;;;;7.43;1.20;;;22.90;80.30;;;;;;6211283;23;20054;-74
2023/05/05 11:15:54;;;;;;;5.75;1.50;;;22.80;80.70;;;;;;6212099;23;20005;-75
2023/05/05 11:18:44;;;;;;;10.65;3.67;;;22.50;81.80;;;;;;6212152;23;20001;-74
2023/05/05 11:21:14;;;;;;;8.85;2.83;;;22.30;86.70;;;;;;6212269;23;20023;-74
2023/05/05 11:23:44;;;;;;;8.45;2.38;;;22.00;88.30;;;;;;6211997;23;20001;-74
2023/05/05 11:26:11;;;;;;;8.10;2.97;;;21.80;90.20;;;;;;6211971;23;20007;-74
2023/05/05 11:28:58;;;;;;;8.70;3.38;;;21.60;91.10;;;;;;6211187;23;20000;-74
2023/05/05 11:31:23;;;;;;;7.95;3.42;;;21.50;92.50;;;;;;6184928;23;20008;-74
2023/05/05 11:33:49;;;;;;;5.25;2.05;;;21.40;92.60;;;;;;6211839;23;20001;-74
2023/05/05 11:36:16;;;;;;;3.03;0.88;;;21.10;91.50;;;;;;6211735;23;20001;-74
2023/05/05 11:39:21;;;;;;;1.85;0.50;;;20.40;90.30;;;;;;6211463;23;20009;-74
2023/05/05 11:42:02;;;;;;;1.75;0.25;;;19.30;91.00;;;;;;6211557;23;20386;-73
2023/05/05 11:44:30;;;;;;;6.13;0.75;;;18.20;93.00;;;;;;6211414;23;20001;-73
2023/05/05 11:46:56;;;;;;;5.47;0.75;;;17.50;94.60;;;;;;6212142;23;20457;-73
2023/05/05 11:49:29;;;;;;;4.47;0.60;;;16.90;96.90;;;;;;6211552;23;19996;-74
2023/05/05 11:51:57;;;;;;;3.05;1.08;;;16.30;98.90;;;;;;6211939;23;20001;-72
2023/05/05 11:54:23;;;;;;;2.10;0.55;;;15.80;99.90;;;;;;6211670;23;20015;-72
2023/05/05 11:56:50;;;;;;;1.20;0.52;;;15.40;99.90;;;;;;6211750;23;20079;-71
2023/05/05 11:59:15;;;;;;;1.95;0.50;;;15.10;99.90;;;;;;6211117;23;20009;-71
2023/05/05 12:01:41;;;;;;;2.70;0.60;;;14.90;99.90;;;;;;6211771;23;19993;-71
2023/05/05 12:04:16;;;;;;;2.40;0.70;;;14.80;99.90;;;;;;6210566;23;20067;-72
2023/05/05 12:06:43;;;;;;;1.42;0.63;;;14.80;99.90;;;;;;6211105;23;20051;-71
2023/05/05 12:09:20;;;;;;;2.67;0.70;;;14.70;99.90;;;;;;6211751;23;20039;-72
2023/05/05 12:11:48;;;;;;;1.40;0.60;;;14.70;99.90;;;;;;6184258;23;20009;-72
2023/05/05 12:14:14;;;;;;;2.67;0.45;;;14.80;99.90;;;;;;6211053;23;20003;-72
2023/05/05 12:16:39;;;;;;;1.88;0.50;;;14.80;99.90;;;;;;6211788;23;20291;-72
2023/05/05 12:19:07;;;;;;;4.50;0.70;;;14.80;99.90;;;;;;6211274;23;20000;-72
2023/05/05 12:21:34;;;;;;;1.80;0.70;;;14.80;99.90;;;;;;6211377;23;20023;-72
2023/05/05 12:24:00;;;;;;;5.00;0.80;;;14.80;99.90;;;;;;6210826;23;20028;-72
2023/05/05 12:26:30;;;;;;;2.95;0.60;;;14.80;99.90;;;;;;6211208;23;20296;-72
2023/05/05 12:28:57;;;;;;;1.77;0.73;;;14.90;99.90;;;;;;6211020;23;20005;-72
2023/05/05 12:31:33;;;;;;;2.58;0.82;;;15.00;99.90;;;;;;6183298;23;20013;-72
2023/05/05 12:33:59;;;;;;;2.53;0.60;;;15.00;99.90;;;;;;6211224;23;20009;-72
2023/05/05 12:36:25;;;;;;;2.88;1.10;;;15.00;99.90;;;;;;6211202;23;20009;-72
2023/05/05 12:38:50;;;;;;;1.75;1.05;;;15.00;99.90;;;;;;6210289;23;20013;-72
2023/05/05 12:41:20;;;;;;;2.17;0.50;;;15.00;99.90;;;;;;6210457;23;20455;-73